sensor_id;sensor_type;location;lat;lon;timestamp;temperature;humidity
38398;DHT22;24179;52.094;4.408;2022-10-16T00:00:49;15.00;99.90
38398;DHT22;24179;52.094;4.408;2022-10-16T00:03:49;15.00;99.90
38398;DHT22;24179;52.094;4.408;2022-10-16T00:06:50;15.00;99.90
38398;DHT22;24179;52.094;4.408;2022-10-16T00:09:50;15.00;99.90
38398;DHT22;24179;52.094;4.408;2022-10-16T00:12:51;15.10;99.90
38398;DHT22;24179;52.094;4.408;2022-10-16T00:15:54;15.10;99.90
38398;DHT22;24179;52.094;4.408;2022-10-16T00:18:54;15.20;99.90
38398;DHT22;24179;52.094;4.408;2022-10-16T00:21:55;14.90;99.90
38398;DHT22;24179;52.094;4.408;2022-10-16T00:24:55;14.90;99.90
38398;DHT22;24179;52.094;4.408;2022-10-16T00:28:02;14.90;99.90
38398;DHT22;24179;52.094;4.408;2022-10-16T00:31:03;15.00;99.90
38398;DHT22;24179;52.094;4.408;2022-10-16T00:34:04;14.80;99.90
38398;DHT22;24179;52.094;4.408;2022-10-16T00:37:05;14.80;99.90
38398;DHT22;24179;52.094;4.408;2022-10-16T00:40:06;14.80;99.90
38398;DHT22;24179;52.094;4.408;2022-10-16T00:43:13;14.70;99.90
38398;DHT22;24179;52.094;4.408;2022-10-16T00:49:15;14.70;99.90
38398;DHT22;24179;52.094;4.408;2022-10-16T00:52:16;14.70;99.90
38398;DHT22;24179;52.094;4.408;2022-10-16T00:55:17;14.60;99.90
38398;DHT22;24179;52.094;4.408;2022-10-16T00:58:18;14.60;99.90
38398;DHT22;24179;52.094;4.408;2022-10-16T01:01:19;14.60;99.90
38398;DHT22;24179;52.094;4.408;2022-10-16T01:04:23;14.60;99.90
38398;DHT22;24179;52.094;4.408;2022-10-16T01:10:44;14.50;99.90
38398;DHT22;24179;52.094;4.408;2022-10-16T01:13:51;14.40;99.90
38398;DHT22;24179;52.094;4.408;2022-10-16T01:16:55;14.30;99.90
38398;DHT22;24179;52.094;4.408;2022-10-16T01:29:18;14.10;99.90
38398;DHT22;24179;52.094;4.408;2022-10-16T01:32:38;14.10;99.90
38398;DHT22;24179;52.094;4.408;2022-10-16T01:35:43;14.00;99.90
38398;DHT22;24179;52.094;4.408;2022-10-16T01:38:45;14.00;99.90
38398;DHT22;24179;52.094;4.408;2022-10-16T01:41:48;14.10;99.90
38398;DHT22;24179;52.094;4.408;2022-10-16T01:44:49;14.10;99.90
38398;DHT22;24179;52.094;4.408;2022-10-16T01:47:51;14.00;99.90
38398;DHT22;24179;52.094;4.408;2022-10-16T01:50:57;14.00;99.90
38398;DHT22;24179;52.094;4.408;2022-10-16T01:54:00;14.00;99.90
38398;DHT22;24179;52.094;4.408;2022-10-16T01:57:01;14.00;99.90
38398;DHT22;24179;52.094;4.408;2022-10-16T02:00:06;14.00;99.90
38398;DHT22;24179;52.094;4.408;2022-10-16T02:03:07;14.10;99.90
38398;DHT22;24179;52.094;4.408;2022-10-16T02:06:10;14.10;99.90
38398;DHT22;24179;52.094;4.408;2022-10-16T02:09:10;14.10;99.90
38398;DHT22;24179;52.094;4.408;2022-10-16T02:12:15;14.10;99.90
38398;DHT22;24179;52.094;4.408;2022-10-16T02:15:17;14.00;99.90
38398;DHT22;24179;52.094;4.408;2022-10-16T02:18:20;13.90;99.90
38398;DHT22;24179;52.094;4.408;2022-10-16T02:30:54;13.90;99.90
38398;DHT22;24179;52.094;4.408;2022-10-16T02:33:56;13.90;99.90
38398;DHT22;24179;52.094;4.408;2022-10-16T02:37:00;13.90;99.90
38398;DHT22;24179;52.094;4.408;2022-10-16T02:40:01;13.90;99.90
38398;DHT22;24179;52.094;4.408;2022-10-16T02:43:03;13.90;99.90
38398;DHT22;24179;52.094;4.408;2022-10-16T02:46:04;13.90;99.90
38398;DHT22;24179;52.094;4.408;2022-10-16T02:49:04;13.90;99.90
38398;DHT22;24179;52.094;4.408;2022-10-16T02:52:05;13.90;99.90
38398;DHT22;24179;52.094;4.408;2022-10-16T02:55:05;14.00;99.90
38398;DHT22;24179;52.094;4.408;2022-10-16T02:58:06;13.90;99.90
38398;DHT22;24179;52.094;4.408;2022-10-16T03:01:06;13.90;99.90
38398;DHT22;24179;52.094;4.408;2022-10-16T03:04:07;13.80;99.90
38398;DHT22;24179;52.094;4.408;2022-10-16T03:07:07;13.70;99.90
38398;DHT22;24179;52.094;4.408;2022-10-16T03:10:09;13.70;99.90
38398;DHT22;24179;52.094;4.408;2022-10-16T03:13:09;13.60;99.90
38398;DHT22;24179;52.094;4.408;2022-10-16T03:16:11;13.70;99.90
38398;DHT22;24179;52.094;4.408;2022-10-16T03:19:11;13.70;99.90
38398;DHT22;24179;52.094;4.408;2022-10-16T03:22:12;13.70;99.90
38398;DHT22;24179;52.094;4.408;2022-10-16T03:25:12;13.80;99.90
38398;DHT22;24179;52.094;4.408;2022-10-16T03:28:13;13.80;99.90
38398;DHT22;24179;52.094;4.408;2022-10-16T03:31:13;13.90;99.90
38398;DHT22;24179;52.094;4.408;2022-10-16T03:34:14;13.90;99.90
38398;DHT22;24179;52.094;4.408;2022-10-16T03:37:14;14.00;99.90
38398;DHT22;24179;52.094;4.408;2022-10-16T03:40:15;13.90;99.90
38398;DHT22;24179;52.094;4.408;2022-10-16T03:43:15;13.90;99.90
38398;DHT22;24179;52.094;4.408;2022-10-16T03:46:16;14.00;99.90
38398;DHT22;24179;52.094;4.408;2022-10-16T03:49:16;14.00;99.90
38398;DHT22;24179;52.094;4.408;2022-10-16T03:52:16;14.00;99.90
38398;DHT22;24179;52.094;4.408;2022-10-16T03:55:17;13.90;99.90
38398;DHT22;24179;52.094;4.408;2022-10-16T03:58:17;13.90;99.90
38398;DHT22;24179;52.094;4.408;2022-10-16T04:01:20;13.80;99.90
38398;DHT22;24179;52.094;4.408;2022-10-16T04:04:20;13.90;99.90
38398;DHT22;24179;52.094;4.408;2022-10-16T04:07:21;13.80;99.90
38398;DHT22;24179;52.094;4.408;2022-10-16T04:10:21;13.90;99.90
38398;DHT22;24179;52.094;4.408;2022-10-16T04:13:22;13.90;99.90
38398;DHT22;24179;52.094;4.408;2022-10-16T04:16:22;13.90;99.90
38398;DHT22;24179;52.094;4.408;2022-10-16T04:19:22;13.90;99.90
38398;DHT22;24179;52.094;4.408;2022-10-16T04:22:23;13.90;99.90
38398;DHT22;24179;52.094;4.408;2022-10-16T04:25:23;13.90;99.90
38398;DHT22;24179;52.094;4.408;2022-10-16T04:28:24;13.80;99.90
38398;DHT22;24179;52.094;4.408;2022-10-16T04:31:24;13.80;99.90
38398;DHT22;24179;52.094;4.408;2022-10-16T04:34:25;13.80;99.90
38398;DHT22;24179;52.094;4.408;2022-10-16T04:37:26;13.80;99.90
38398;DHT22;24179;52.094;4.408;2022-10-16T04:40:26;13.90;99.90
38398;DHT22;24179;52.094;4.408;2022-10-16T04:43:27;13.80;99.90
38398;DHT22;24179;52.094;4.408;2022-10-16T04:46:27;13.80;99.90
38398;DHT22;24179;52.094;4.408;2022-10-16T04:49:28;13.70;99.90
38398;DHT22;24179;52.094;4.408;2022-10-16T04:52:28;13.70;99.90
38398;DHT22;24179;52.094;4.408;2022-10-16T04:55:29;13.70;99.90
38398;DHT22;24179;52.094;4.408;2022-10-16T04:58:29;13.60;99.90
38398;DHT22;24179;52.094;4.408;2022-10-16T05:01:30;13.40;99.90
38398;DHT22;24179;52.094;4.408;2022-10-16T05:04:30;13.40;99.90
38398;DHT22;24179;52.094;4.408;2022-10-16T05:07:33;13.20;99.90
38398;DHT22;24179;52.094;4.408;2022-10-16T05:10:34;13.10;99.90
38398;DHT22;24179;52.094;4.408;2022-10-16T05:13:34;13.10;99.90
38398;DHT22;24179;52.094;4.408;2022-10-16T05:16:35;13.10;99.90
38398;DHT22;24179;52.094;4.408;2022-10-16T05:19:35;13.10;99.90
38398;DHT22;24179;52.094;4.408;2022-10-16T05:22:36;13.00;99.90
38398;DHT22;24179;52.094;4.408;2022-10-16T05:25:36;12.90;99.90
38398;DHT22;24179;52.094;4.408;2022-10-16T05:28:37;12.80;99.90
38398;DHT22;24179;52.094;4.408;2022-10-16T05:31:37;12.80;99.90
38398;DHT22;24179;52.094;4.408;2022-10-16T05:34:37;12.80;99.90
38398;DHT22;24179;52.094;4.408;2022-10-16T05:37:38;12.80;99.90
38398;DHT22;24179;52.094;4.408;2022-10-16T05:40:38;12.80;99.90
38398;DHT22;24179;52.094;4.408;2022-10-16T05:43:39;12.80;99.90
38398;DHT22;24179;52.094;4.408;2022-10-16T05:46:40;12.80;99.90
38398;DHT22;24179;52.094;4.408;2022-10-16T05:49:40;12.70;99.90
38398;DHT22;24179;52.094;4.408;2022-10-16T05:52:41;12.80;99.90
38398;DHT22;24179;52.094;4.408;2022-10-16T05:55:41;12.70;99.90
38398;DHT22;24179;52.094;4.408;2022-10-16T05:58:42;12.70;99.90
38398;DHT22;24179;52.094;4.408;2022-10-16T06:01:44;12.70;99.90
38398;DHT22;24179;52.094;4.408;2022-10-16T06:04:44;12.70;99.90
38398;DHT22;24179;52.094;4.408;2022-10-16T06:07:45;12.70;99.90
38398;DHT22;24179;52.094;4.408;2022-10-16T06:10:49;12.70;99.90
38398;DHT22;24179;52.094;4.408;2022-10-16T06:14:00;12.70;99.90
38398;DHT22;24179;52.094;4.408;2022-10-16T06:17:06;12.70;99.90
38398;DHT22;24179;52.094;4.408;2022-10-16T06:20:07;12.70;99.90
38398;DHT22;24179;52.094;4.408;2022-10-16T06:23:08;12.70;99.90
38398;DHT22;24179;52.094;4.408;2022-10-16T06:26:09;12.70;99.90
38398;DHT22;24179;52.094;4.408;2022-10-16T06:29:10;12.70;99.90
38398;DHT22;24179;52.094;4.408;2022-10-16T06:32:11;12.50;99.90
38398;DHT22;24179;52.094;4.408;2022-10-16T06:35:12;12.70;99.90
38398;DHT22;24179;52.094;4.408;2022-10-16T06:38:12;12.70;99.90
38398;DHT22;24179;52.094;4.408;2022-10-16T06:41:13;12.80;99.90
38398;DHT22;24179;52.094;4.408;2022-10-16T06:44:14;12.80;99.90
38398;DHT22;24179;52.094;4.408;2022-10-16T06:47:16;12.90;99.90
38398;DHT22;24179;52.094;4.408;2022-10-16T06:50:16;12.90;99.90
38398;DHT22;24179;52.094;4.408;2022-10-16T06:53:17;12.90;99.90
38398;DHT22;24179;52.094;4.408;2022-10-16T06:59:17;13.00;99.90
38398;DHT22;24179;52.094;4.408;2022-10-16T07:02:18;12.90;99.90
38398;DHT22;24179;52.094;4.408;2022-10-16T07:05:18;12.90;99.90
38398;DHT22;24179;52.094;4.408;2022-10-16T07:08:19;12.90;99.90
38398;DHT22;24179;52.094;4.408;2022-10-16T07:11:20;12.90;99.90
38398;DHT22;24179;52.094;4.408;2022-10-16T07:14:21;13.10;99.90
38398;DHT22;24179;52.094;4.408;2022-10-16T07:17:21;13.10;99.90
38398;DHT22;24179;52.094;4.408;2022-10-16T07:20:24;13.20;99.90
38398;DHT22;24179;52.094;4.408;2022-10-16T07:23:24;13.50;99.90
38398;DHT22;24179;52.094;4.408;2022-10-16T07:26:25;13.80;99.90
38398;DHT22;24179;52.094;4.408;2022-10-16T07:29:26;14.30;99.90
38398;DHT22;24179;52.094;4.408;2022-10-16T07:32:27;14.80;99.90
38398;DHT22;24179;52.094;4.408;2022-10-16T07:35:27;15.10;99.90
38398;DHT22;24179;52.094;4.408;2022-10-16T07:38:28;15.40;99.90
38398;DHT22;24179;52.094;4.408;2022-10-16T07:41:28;15.60;99.90
38398;DHT22;24179;52.094;4.408;2022-10-16T07:44:29;15.80;99.90
38398;DHT22;24179;52.094;4.408;2022-10-16T07:47:32;15.80;99.90
38398;DHT22;24179;52.094;4.408;2022-10-16T07:50:32;16.00;99.90
38398;DHT22;24179;52.094;4.408;2022-10-16T07:53:33;16.30;99.90
38398;DHT22;24179;52.094;4.408;2022-10-16T07:56:33;16.20;99.90
38398;DHT22;24179;52.094;4.408;2022-10-16T07:59:34;16.30;99.90
38398;DHT22;24179;52.094;4.408;2022-10-16T08:02:34;16.50;99.90
38398;DHT22;24179;52.094;4.408;2022-10-16T08:05:35;16.60;99.90
38398;DHT22;24179;52.094;4.408;2022-10-16T08:08:35;17.10;99.90
38398;DHT22;24179;52.094;4.408;2022-10-16T08:11:36;17.30;99.90
38398;DHT22;24179;52.094;4.408;2022-10-16T08:14:36;17.60;99.90
38398;DHT22;24179;52.094;4.408;2022-10-16T08:17:43;17.70;99.90
38398;DHT22;24179;52.094;4.408;2022-10-16T08:20:43;17.90;99.90
38398;DHT22;24179;52.094;4.408;2022-10-16T08:23:44;17.90;99.90
38398;DHT22;24179;52.094;4.408;2022-10-16T08:26:44;17.10;99.90
38398;DHT22;24179;52.094;4.408;2022-10-16T08:29:45;17.10;99.90
38398;DHT22;24179;52.094;4.408;2022-10-16T08:32:45;17.30;99.90
38398;DHT22;24179;52.094;4.408;2022-10-16T08:35:52;17.90;99.90
38398;DHT22;24179;52.094;4.408;2022-10-16T08:38:54;18.00;99.90
38398;DHT22;24179;52.094;4.408;2022-10-16T08:41:59;18.00;99.90
38398;DHT22;24179;52.094;4.408;2022-10-16T08:45:20;18.00;99.90
38398;DHT22;24179;52.094;4.408;2022-10-16T08:48:27;18.40;99.90
38398;DHT22;24179;52.094;4.408;2022-10-16T08:51:31;18.60;99.90
38398;DHT22;24179;52.094;4.408;2022-10-16T08:54:36;18.60;99.90
38398;DHT22;24179;52.094;4.408;2022-10-16T08:57:40;17.40;99.90
38398;DHT22;24179;52.094;4.408;2022-10-16T09:00:41;17.00;99.90
38398;DHT22;24179;52.094;4.408;2022-10-16T09:07:04;17.00;99.90
38398;DHT22;24179;52.094;4.408;2022-10-16T09:16:38;16.90;99.90
38398;DHT22;24179;52.094;4.408;2022-10-16T09:19:49;17.30;99.90
38398;DHT22;24179;52.094;4.408;2022-10-16T09:22:53;17.30;99.90
38398;DHT22;24179;52.094;4.408;2022-10-16T09:25:55;17.60;99.90
38398;DHT22;24179;52.094;4.408;2022-10-16T09:28:56;17.80;99.90
38398;DHT22;24179;52.094;4.408;2022-10-16T09:31:57;17.80;99.90
38398;DHT22;24179;52.094;4.408;2022-10-16T09:35:09;18.50;99.90
38398;DHT22;24179;52.094;4.408;2022-10-16T09:38:21;19.40;99.90
38398;DHT22;24179;52.094;4.408;2022-10-16T09:41:22;19.80;99.90
38398;DHT22;24179;52.094;4.408;2022-10-16T09:44:29;20.10;99.90
38398;DHT22;24179;52.094;4.408;2022-10-16T09:47:31;20.20;99.90
38398;DHT22;24179;52.094;4.408;2022-10-16T09:50:31;19.70;99.90
38398;DHT22;24179;52.094;4.408;2022-10-16T09:53:40;19.70;99.90
38398;DHT22;24179;52.094;4.408;2022-10-16T09:56:44;20.00;99.90
38398;DHT22;24179;52.094;4.408;2022-10-16T09:59:47;20.40;99.90
38398;DHT22;24179;52.094;4.408;2022-10-16T10:02:48;20.40;99.90
38398;DHT22;24179;52.094;4.408;2022-10-16T10:05:49;20.70;99.90
38398;DHT22;24179;52.094;4.408;2022-10-16T10:08:54;21.00;99.90
38398;DHT22;24179;52.094;4.408;2022-10-16T10:11:59;21.00;99.90
38398;DHT22;24179;52.094;4.408;2022-10-16T10:15:06;21.20;99.90
38398;DHT22;24179;52.094;4.408;2022-10-16T10:18:19;21.70;99.90
38398;DHT22;24179;52.094;4.408;2022-10-16T10:21:22;22.00;99.90
38398;DHT22;24179;52.094;4.408;2022-10-16T10:24:22;21.50;99.90
38398;DHT22;24179;52.094;4.408;2022-10-16T10:27:25;21.30;99.90
38398;DHT22;24179;52.094;4.408;2022-10-16T10:30:44;21.40;99.90
38398;DHT22;24179;52.094;4.408;2022-10-16T10:36:54;21.70;99.90
38398;DHT22;24179;52.094;4.408;2022-10-16T10:40:00;22.00;99.90
38398;DHT22;24179;52.094;4.408;2022-10-16T10:46:15;21.50;99.90
38398;DHT22;24179;52.094;4.408;2022-10-16T10:55:44;21.30;99.90
38398;DHT22;24179;52.094;4.408;2022-10-16T11:08:22;21.70;99.90
38398;DHT22;24179;52.094;4.408;2022-10-16T11:11:37;21.70;99.90
38398;DHT22;24179;52.094;4.408;2022-10-16T11:14:49;21.70;99.90
38398;DHT22;24179;52.094;4.408;2022-10-16T11:18:15;21.50;99.90
38398;DHT22;24179;52.094;4.408;2022-10-16T11:21:13;21.00;99.90
38398;DHT22;24179;52.094;4.408;2022-10-16T11:24:19;21.20;99.90
38398;DHT22;24179;52.094;4.408;2022-10-16T11:27:38;22.00;99.90
38398;DHT22;24179;52.094;4.408;2022-10-16T11:37:10;21.80;98.90
38398;DHT22;24179;52.094;4.408;2022-10-16T11:40:25;21.90;99.90
38398;DHT22;24179;52.094;4.408;2022-10-16T11:43:30;21.90;98.90
38398;DHT22;24179;52.094;4.408;2022-10-16T11:46:31;22.20;98.00
38398;DHT22;24179;52.094;4.408;2022-10-16T11:49:32;22.80;98.70
38398;DHT22;24179;52.094;4.408;2022-10-16T11:52:39;23.20;98.10
38398;DHT22;24179;52.094;4.408;2022-10-16T11:55:41;23.40;96.50
38398;DHT22;24179;52.094;4.408;2022-10-16T12:02:33;22.30;96.40
38398;DHT22;24179;52.094;4.408;2022-10-16T12:05:19;22.30;96.70
38398;DHT22;24179;52.094;4.408;2022-10-16T12:08:22;22.20;96.10
38398;DHT22;24179;52.094;4.408;2022-10-16T12:11:24;21.90;96.10
38398;DHT22;24179;52.094;4.408;2022-10-16T12:14:35;21.80;95.00
38398;DHT22;24179;52.094;4.408;2022-10-16T12:17:36;21.70;96.20
38398;DHT22;24179;52.094;4.408;2022-10-16T12:20:37;22.00;96.20
38398;DHT22;24179;52.094;4.408;2022-10-16T12:23:45;22.20;96.70
38398;DHT22;24179;52.094;4.408;2022-10-16T12:26:46;22.20;95.70
38398;DHT22;24179;52.094;4.408;2022-10-16T12:29:49;22.00;95.80
38398;DHT22;24179;52.094;4.408;2022-10-16T12:32:58;21.80;94.90
38398;DHT22;24179;52.094;4.408;2022-10-16T12:36:00;21.60;95.50
38398;DHT22;24179;52.094;4.408;2022-10-16T12:39:02;21.30;95.30
38398;DHT22;24179;52.094;4.408;2022-10-16T12:42:19;20.70;96.00
38398;DHT22;24179;52.094;4.408;2022-10-16T12:45:27;20.30;96.80
38398;DHT22;24179;52.094;4.408;2022-10-16T12:48:27;19.90;97.30
38398;DHT22;24179;52.094;4.408;2022-10-16T12:54:36;19.40;99.20
38398;DHT22;24179;52.094;4.408;2022-10-16T13:10:13;19.10;99.50
38398;DHT22;24179;52.094;4.408;2022-10-16T13:25:59;18.80;99.90
38398;DHT22;24179;52.094;4.408;2022-10-16T13:29:04;18.50;99.90
38398;DHT22;24179;52.094;4.408;2022-10-16T13:32:07;18.70;99.90
38398;DHT22;24179;52.094;4.408;2022-10-16T13:35:24;18.90;99.90
38398;DHT22;24179;52.094;4.408;2022-10-16T13:38:25;18.90;99.90
38398;DHT22;24179;52.094;4.408;2022-10-16T13:41:27;19.10;99.90
38398;DHT22;24179;52.094;4.408;2022-10-16T13:44:27;19.00;99.90
38398;DHT22;24179;52.094;4.408;2022-10-16T13:47:31;19.00;99.90
38398;DHT22;24179;52.094;4.408;2022-10-16T13:50:35;19.10;99.90
38398;DHT22;24179;52.094;4.408;2022-10-16T13:53:35;18.80;99.90
38398;DHT22;24179;52.094;4.408;2022-10-16T13:56:38;18.80;99.90
38398;DHT22;24179;52.094;4.408;2022-10-16T13:59:38;18.60;99.90
38398;DHT22;24179;52.094;4.408;2022-10-16T14:02:39;18.60;99.90
38398;DHT22;24179;52.094;4.408;2022-10-16T14:05:43;18.40;99.90
38398;DHT22;24179;52.094;4.408;2022-10-16T14:08:45;18.30;99.90
38398;DHT22;24179;52.094;4.408;2022-10-16T14:11:51;18.20;99.90
38398;DHT22;24179;52.094;4.408;2022-10-16T14:14:53;18.20;99.90
38398;DHT22;24179;52.094;4.408;2022-10-16T14:17:54;18.30;99.90
38398;DHT22;24179;52.094;4.408;2022-10-16T14:20:54;18.20;99.90
38398;DHT22;24179;52.094;4.408;2022-10-16T14:24:12;18.10;99.90
38398;DHT22;24179;52.094;4.408;2022-10-16T14:27:32;18.20;99.90
38398;DHT22;24179;52.094;4.408;2022-10-16T14:30:34;17.90;99.90
38398;DHT22;24179;52.094;4.408;2022-10-16T14:33:35;17.70;99.90
38398;DHT22;24179;52.094;4.408;2022-10-16T14:36:35;17.60;99.90
38398;DHT22;24179;52.094;4.408;2022-10-16T14:39:36;17.60;99.90
38398;DHT22;24179;52.094;4.408;2022-10-16T14:42:36;17.60;99.90
38398;DHT22;24179;52.094;4.408;2022-10-16T14:45:37;17.60;99.90
38398;DHT22;24179;52.094;4.408;2022-10-16T14:48:45;17.60;99.90
38398;DHT22;24179;52.094;4.408;2022-10-16T14:51:46;17.60;99.90
38398;DHT22;24179;52.094;4.408;2022-10-16T14:54:50;17.60;99.90
38398;DHT22;24179;52.094;4.408;2022-10-16T14:57:54;17.60;99.90
38398;DHT22;24179;52.094;4.408;2022-10-16T15:00:55;17.60;99.90
38398;DHT22;24179;52.094;4.408;2022-10-16T15:03:56;17.60;99.90
38398;DHT22;24179;52.094;4.408;2022-10-16T15:06:56;17.60;99.90
38398;DHT22;24179;52.094;4.408;2022-10-16T15:09:57;17.50;99.90
38398;DHT22;24179;52.094;4.408;2022-10-16T15:12:58;17.40;99.90
38398;DHT22;24179;52.094;4.408;2022-10-16T15:15:59;17.40;99.90
38398;DHT22;24179;52.094;4.408;2022-10-16T15:18:59;17.40;99.90
38398;DHT22;24179;52.094;4.408;2022-10-16T15:22:00;17.30;99.90
38398;DHT22;24179;52.094;4.408;2022-10-16T15:25:00;17.30;99.90
38398;DHT22;24179;52.094;4.408;2022-10-16T15:28:01;17.20;99.90
38398;DHT22;24179;52.094;4.408;2022-10-16T15:31:02;17.20;99.90
38398;DHT22;24179;52.094;4.408;2022-10-16T15:34:04;17.10;99.90
38398;DHT22;24179;52.094;4.408;2022-10-16T15:37:06;17.10;99.90
38398;DHT22;24179;52.094;4.408;2022-10-16T15:40:07;17.10;99.90
38398;DHT22;24179;52.094;4.408;2022-10-16T15:43:08;17.00;99.90
38398;DHT22;24179;52.094;4.408;2022-10-16T15:46:10;17.00;99.90
38398;DHT22;24179;52.094;4.408;2022-10-16T15:49:11;16.80;99.90
38398;DHT22;24179;52.094;4.408;2022-10-16T15:52:11;16.70;99.90
38398;DHT22;24179;52.094;4.408;2022-10-16T15:55:13;16.60;99.90
38398;DHT22;24179;52.094;4.408;2022-10-16T15:58:13;16.50;99.90
38398;DHT22;24179;52.094;4.408;2022-10-16T16:01:14;16.40;99.90
38398;DHT22;24179;52.094;4.408;2022-10-16T16:04:14;16.30;99.90
38398;DHT22;24179;52.094;4.408;2022-10-16T16:07:16;16.20;99.90
38398;DHT22;24179;52.094;4.408;2022-10-16T16:10:17;16.10;99.90
38398;DHT22;24179;52.094;4.408;2022-10-16T16:13:18;16.00;99.90
38398;DHT22;24179;52.094;4.408;2022-10-16T16:16:18;15.90;99.90
38398;DHT22;24179;52.094;4.408;2022-10-16T16:19:20;15.80;99.90
38398;DHT22;24179;52.094;4.408;2022-10-16T16:22:21;15.70;99.90
38398;DHT22;24179;52.094;4.408;2022-10-16T16:25:21;15.60;99.90
38398;DHT22;24179;52.094;4.408;2022-10-16T16:28:22;15.50;99.90
38398;DHT22;24179;52.094;4.408;2022-10-16T16:31:26;15.40;99.90
38398;DHT22;24179;52.094;4.408;2022-10-16T16:34:27;15.30;99.90
38398;DHT22;24179;52.094;4.408;2022-10-16T16:37:28;15.10;99.90
38398;DHT22;24179;52.094;4.408;2022-10-16T16:40:28;15.10;99.90
38398;DHT22;24179;52.094;4.408;2022-10-16T16:43:29;15.00;99.90
38398;DHT22;24179;52.094;4.408;2022-10-16T16:46:30;14.90;99.90
38398;DHT22;24179;52.094;4.408;2022-10-16T16:49:31;15.00;99.90
38398;DHT22;24179;52.094;4.408;2022-10-16T16:52:32;14.90;99.90
38398;DHT22;24179;52.094;4.408;2022-10-16T16:55:33;14.90;99.90
38398;DHT22;24179;52.094;4.408;2022-10-16T16:58:34;14.90;99.90
38398;DHT22;24179;52.094;4.408;2022-10-16T17:01:34;14.80;99.90
38398;DHT22;24179;52.094;4.408;2022-10-16T17:04:35;14.80;99.90
38398;DHT22;24179;52.094;4.408;2022-10-16T17:07:35;14.70;99.90
38398;DHT22;24179;52.094;4.408;2022-10-16T17:10:41;14.70;99.90
38398;DHT22;24179;52.094;4.408;2022-10-16T17:13:42;14.70;99.90
38398;DHT22;24179;52.094;4.408;2022-10-16T17:16:43;14.70;99.90
38398;DHT22;24179;52.094;4.408;2022-10-16T17:19:44;14.70;99.90
38398;DHT22;24179;52.094;4.408;2022-10-16T17:22:44;14.70;99.90
38398;DHT22;24179;52.094;4.408;2022-10-16T17:25:45;14.60;99.90
38398;DHT22;24179;52.094;4.408;2022-10-16T17:28:45;14.60;99.90
38398;DHT22;24179;52.094;4.408;2022-10-16T17:31:46;14.60;99.90
38398;DHT22;24179;52.094;4.408;2022-10-16T17:34:49;14.60;99.90
38398;DHT22;24179;52.094;4.408;2022-10-16T17:37:50;14.60;99.90
38398;DHT22;24179;52.094;4.408;2022-10-16T17:40:51;14.60;99.90
38398;DHT22;24179;52.094;4.408;2022-10-16T17:43:52;14.60;99.90
38398;DHT22;24179;52.094;4.408;2022-10-16T17:46:52;14.60;99.90
38398;DHT22;24179;52.094;4.408;2022-10-16T17:49:53;14.60;99.90
38398;DHT22;24179;52.094;4.408;2022-10-16T17:52:53;14.60;99.90
38398;DHT22;24179;52.094;4.408;2022-10-16T17:55:54;14.70;99.90
38398;DHT22;24179;52.094;4.408;2022-10-16T17:58:59;14.60;99.90
38398;DHT22;24179;52.094;4.408;2022-10-16T18:02:00;14.70;99.90
38398;DHT22;24179;52.094;4.408;2022-10-16T18:05:01;14.60;99.90
38398;DHT22;24179;52.094;4.408;2022-10-16T18:08:05;14.60;99.90
38398;DHT22;24179;52.094;4.408;2022-10-16T18:11:05;14.60;99.90
38398;DHT22;24179;52.094;4.408;2022-10-16T18:14:10;14.70;99.90
38398;DHT22;24179;52.094;4.408;2022-10-16T18:17:11;14.70;99.90
38398;DHT22;24179;52.094;4.408;2022-10-16T18:20:12;14.60;99.90
38398;DHT22;24179;52.094;4.408;2022-10-16T18:23:12;14.60;99.90
38398;DHT22;24179;52.094;4.408;2022-10-16T18:26:14;14.60;99.90
38398;DHT22;24179;52.094;4.408;2022-10-16T18:29:15;14.50;99.90
38398;DHT22;24179;52.094;4.408;2022-10-16T18:32:15;14.50;99.90
38398;DHT22;24179;52.094;4.408;2022-10-16T18:35:15;14.50;99.90
38398;DHT22;24179;52.094;4.408;2022-10-16T18:38:16;14.40;99.90
38398;DHT22;24179;52.094;4.408;2022-10-16T18:41:17;14.40;99.90
38398;DHT22;24179;52.094;4.408;2022-10-16T18:44:18;14.40;99.90
38398;DHT22;24179;52.094;4.408;2022-10-16T18:47:18;14.40;99.90
38398;DHT22;24179;52.094;4.408;2022-10-16T18:50:18;14.40;99.90
38398;DHT22;24179;52.094;4.408;2022-10-16T18:53:19;14.40;99.90
38398;DHT22;24179;52.094;4.408;2022-10-16T18:56:20;14.40;99.90
38398;DHT22;24179;52.094;4.408;2022-10-16T18:59:21;14.40;99.90
38398;DHT22;24179;52.094;4.408;2022-10-16T19:02:31;14.30;99.90
38398;DHT22;24179;52.094;4.408;2022-10-16T19:05:32;14.30;99.90
38398;DHT22;24179;52.094;4.408;2022-10-16T19:08:33;14.20;99.90
38398;DHT22;24179;52.094;4.408;2022-10-16T19:11:34;14.10;99.90
38398;DHT22;24179;52.094;4.408;2022-10-16T19:14:35;14.00;99.90
38398;DHT22;24179;52.094;4.408;2022-10-16T19:17:40;14.00;99.90
38398;DHT22;24179;52.094;4.408;2022-10-16T19:20:41;13.90;99.90
38398;DHT22;24179;52.094;4.408;2022-10-16T19:23:41;13.80;99.90
38398;DHT22;24179;52.094;4.408;2022-10-16T19:26:42;13.80;99.90
38398;DHT22;24179;52.094;4.408;2022-10-16T19:29:42;13.70;99.90
38398;DHT22;24179;52.094;4.408;2022-10-16T19:32:43;13.70;99.90
38398;DHT22;24179;52.094;4.408;2022-10-16T19:35:45;13.70;99.90
38398;DHT22;24179;52.094;4.408;2022-10-16T19:38:45;13.70;99.90
38398;DHT22;24179;52.094;4.408;2022-10-16T19:41:46;13.60;99.90
38398;DHT22;24179;52.094;4.408;2022-10-16T19:44:47;13.60;99.90
38398;DHT22;24179;52.094;4.408;2022-10-16T19:47:48;13.60;99.90
38398;DHT22;24179;52.094;4.408;2022-10-16T19:50:48;13.60;99.90
38398;DHT22;24179;52.094;4.408;2022-10-16T19:53:53;13.50;99.90
38398;DHT22;24179;52.094;4.408;2022-10-16T19:56:54;13.50;99.90
38398;DHT22;24179;52.094;4.408;2022-10-16T19:59:59;13.50;99.90
38398;DHT22;24179;52.094;4.408;2022-10-16T20:02:59;13.50;99.90
38398;DHT22;24179;52.094;4.408;2022-10-16T20:06:01;13.50;99.90
38398;DHT22;24179;52.094;4.408;2022-10-16T20:09:05;13.50;99.90
38398;DHT22;24179;52.094;4.408;2022-10-16T20:12:06;13.50;99.90
38398;DHT22;24179;52.094;4.408;2022-10-16T20:15:06;13.60;99.90
38398;DHT22;24179;52.094;4.408;2022-10-16T20:18:07;13.60;99.90
38398;DHT22;24179;52.094;4.408;2022-10-16T20:21:13;13.60;99.90
38398;DHT22;24179;52.094;4.408;2022-10-16T20:24:14;13.70;99.90
38398;DHT22;24179;52.094;4.408;2022-10-16T20:27:15;13.70;99.90
38398;DHT22;24179;52.094;4.408;2022-10-16T20:30:15;13.70;99.90
38398;DHT22;24179;52.094;4.408;2022-10-16T20:33:16;13.80;99.90
38398;DHT22;24179;52.094;4.408;2022-10-16T20:36:17;13.80;99.90
38398;DHT22;24179;52.094;4.408;2022-10-16T20:39:18;13.80;99.90
38398;DHT22;24179;52.094;4.408;2022-10-16T20:42:18;13.80;99.90
38398;DHT22;24179;52.094;4.408;2022-10-16T20:45:19;13.80;99.90
38398;DHT22;24179;52.094;4.408;2022-10-16T20:48:19;13.80;99.90